Time;durP1;ratioP1;P1;durP2;ratioP2;P2;SDS_P1;SDS_P2;PMS_P1;PMS_P2;Temp;Humidity;BMP_temperature;BMP_pressure;BME280_temperature;BME280_humidity;BME280_pressure;Samples;Min_cycle;Max_cycle;Signal;HPM_P1;HPM_P2
2022/08/05 00:00:19;;;;;;;1.40;0.40;;;18.10;58.10;;;;;;4989811;28;20022;-76
2022/08/05 00:02:47;;;;;;;0.60;0.40;;;18.10;59.80;;;;;;4989343;28;20058;-75
2022/08/05 00:05:13;;;;;;;1.63;0.50;;;18.10;59.30;;;;;;4989119;28;20113;-76
2022/08/05 00:07:38;;;;;;;4.05;0.55;;;18.10;59.70;;;;;;4989296;28;20105;-76
2022/08/05 00:10:04;;;;;;;1.35;0.32;;;18.00;58.50;;;;;;4989772;28;20026;-76
2022/08/05 00:12:30;;;;;;;2.63;1.58;;;18.00;58.20;;;;;;4985232;28;20027;-76
2022/08/05 00:14:56;;;;;;;2.05;0.60;;;17.90;58.30;;;;;;4972152;28;20029;-76
2022/08/05 00:17:22;;;;;;;0.90;0.50;;;17.80;58.40;;;;;;4988608;28;20027;-76
2022/08/05 00:19:47;;;;;;;1.42;0.43;;;17.70;58.20;;;;;;4989039;28;20046;-76
2022/08/05 00:22:13;;;;;;;2.25;0.50;;;17.70;58.90;;;;;;4988943;28;20938;-76
2022/08/05 00:24:39;;;;;;;0.32;0.30;;;17.70;58.50;;;;;;4989235;28;20052;-76
2022/08/05 00:27:05;;;;;;;1.25;0.57;;;17.50;60.50;;;;;;4988786;28;20026;-76
2022/08/05 00:29:31;;;;;;;0.47;0.30;;;17.40;60.10;;;;;;4988666;28;20030;-76
2022/08/05 00:31:57;;;;;;;1.67;0.50;;;17.40;60.90;;;;;;4989026;28;20513;-76
2022/08/05 00:34:23;;;;;;;1.00;0.40;;;17.30;60.50;;;;;;4988565;28;20548;-76
2022/08/05 00:36:48;;;;;;;0.85;0.35;;;17.30;60.90;;;;;;4988907;28;20101;-76
2022/08/05 00:39:14;;;;;;;1.17;0.45;;;17.20;59.60;;;;;;4989122;28;20022;-76
2022/08/05 00:41:45;;;;;;;1.05;0.28;;;17.20;59.90;;;;;;4986228;28;20022;-76
2022/08/05 00:44:11;;;;;;;7.50;0.40;;;17.20;59.20;;;;;;4984955;28;20022;-76
2022/08/05 00:46:37;;;;;;;1.10;0.40;;;17.20;60.10;;;;;;4988677;28;20023;-76
2022/08/05 00:49:03;;;;;;;3.25;0.30;;;17.20;59.00;;;;;;4988577;28;20628;-76
2022/08/05 00:51:29;;;;;;;1.55;0.35;;;17.20;60.20;;;;;;4988647;28;20015;-76
2022/08/05 00:53:54;;;;;;;1.67;0.50;;;17.10;59.30;;;;;;4988589;28;20430;-76
2022/08/05 00:56:20;;;;;;;3.72;0.68;;;17.10;59.80;;;;;;4987752;28;20064;-76
2022/08/05 00:58:46;;;;;;;0.95;0.40;;;17.10;59.10;;;;;;4988066;28;20030;-76
2022/08/05 01:01:14;;;;;;;2.83;0.50;;;17.10;58.70;;;;;;4988467;28;20050;-76
2022/08/05 01:03:41;;;;;;;1.70;0.60;;;17.10;59.50;;;;;;4988771;28;20137;-76
2022/08/05 01:06:07;;;;;;;1.95;0.35;;;17.00;59.30;;;;;;4988638;28;20027;-76
2022/08/05 01:08:33;;;;;;;0.65;0.40;;;17.00;59.40;;;;;;4986650;28;20053;-75
2022/08/05 01:11:05;;;;;;;0.60;0.40;;;17.10;58.20;;;;;;4989394;28;20015;-76
2022/08/05 01:14:01;;;;;;;1.35;0.50;;;17.10;58.40;;;;;;4988106;28;20505;-75
2022/08/05 01:16:46;;;;;;;1.65;0.50;;;17.20;59.20;;;;;;4975603;28;20022;-76
2022/08/05 01:19:44;;;;;;;1.65;0.68;;;17.20;58.60;;;;;;4976012;28;20022;-76
2022/08/05 01:22:14;;;;;;;0.93;0.52;;;17.30;58.00;;;;;;4987762;28;20022;-75
2022/08/05 01:24:51;;;;;;;3.00;0.40;;;17.30;58.20;;;;;;4988488;28;20026;-75
2022/08/05 01:27:36;;;;;;;1.73;0.40;;;17.30;57.80;;;;;;4986847;28;20076;-75
2022/08/05 01:30:04;;;;;;;2.33;0.43;;;17.40;57.90;;;;;;4988222;28;20063;-74
2022/08/05 01:32:33;;;;;;;6.00;0.75;;;17.40;58.10;;;;;;4987845;28;20030;-76
2022/08/05 01:35:12;;;;;;;0.93;0.30;;;17.30;57.70;;;;;;4987519;28;20097;-75
2022/08/05 01:37:51;;;;;;;0.52;0.22;;;17.30;58.20;;;;;;4987269;28;20022;-75
2022/08/05 01:40:18;;;;;;;1.58;0.35;;;17.20;59.10;;;;;;4988047;28;20072;-75
2022/08/05 01:42:45;;;;;;;7.90;0.65;;;17.20;58.30;;;;;;4986570;28;20050;-75
2022/08/05 01:45:13;;;;;;;1.20;0.30;;;17.10;58.20;;;;;;4988096;28;20361;-75
2022/08/05 01:47:40;;;;;;;1.73;0.50;;;17.00;58.80;;;;;;4987739;28;20023;-75
2022/08/05 01:50:16;;;;;;;3.33;0.77;;;17.00;60.00;;;;;;4987628;28;20036;-76
2022/08/05 01:52:44;;;;;;;1.10;0.40;;;16.90;59.80;;;;;;4987243;28;20030;-75
2022/08/05 01:55:13;;;;;;;0.65;0.45;;;16.80;60.80;;;;;;4987473;28;20030;-76
2022/08/05 01:57:42;;;;;;;0.40;0.30;;;16.80;61.50;;;;;;4987482;28;20026;-75
2022/08/05 02:00:09;;;;;;;0.47;0.35;;;16.70;60.60;;;;;;4987708;28;20022;-75
2022/08/05 02:02:38;;;;;;;2.15;0.40;;;16.60;62.10;;;;;;4987635;28;20030;-75
2022/08/05 02:05:07;;;;;;;0.70;0.40;;;16.50;61.10;;;;;;4986076;28;20026;-76
2022/08/05 02:07:34;;;;;;;1.00;0.55;;;16.50;62.90;;;;;;4979736;28;20027;-76
2022/08/05 02:10:01;;;;;;;3.38;0.70;;;16.40;62.40;;;;;;4987784;28;20025;-75
2022/08/05 02:12:55;;;;;;;3.22;0.50;;;16.40;62.00;;;;;;4985872;28;21206;-75
2022/08/05 02:15:35;;;;;;;1.92;0.50;;;16.30;62.30;;;;;;4987688;28;20022;-75
2022/08/05 02:18:09;;;;;;;1.08;0.40;;;16.30;62.50;;;;;;4987663;28;20049;-76
2022/08/05 02:21:12;;;;;;;1.40;0.63;;;16.20;64.00;;;;;;4987449;28;20031;-76
2022/08/05 02:23:41;;;;;;;0.65;0.25;;;16.20;62.70;;;;;;4998800;28;20042;-76
2022/08/05 02:26:10;;;;;;;1.67;0.50;;;16.20;63.40;;;;;;4987042;28;20015;-76
2022/08/05 02:28:43;;;;;;;0.98;0.60;;;16.30;62.90;;;;;;4987519;28;20105;-75
2022/08/05 02:31:21;;;;;;;0.93;0.45;;;16.30;62.70;;;;;;4987771;28;20014;-75
2022/08/05 02:33:57;;;;;;;0.47;0.35;;;16.30;62.40;;;;;;4975907;28;20030;-75
2022/08/05 02:36:24;;;;;;;3.80;0.50;;;16.20;64.20;;;;;;4987017;28;20018;-75
2022/08/05 02:38:53;;;;;;;0.80;0.60;;;16.20;61.90;;;;;;4978812;28;20046;-75
2022/08/05 02:41:21;;;;;;;0.90;0.40;;;16.20;62.40;;;;;;4987514;28;20019;-76
2022/08/05 02:43:48;;;;;;;1.27;0.50;;;16.20;64.60;;;;;;4987893;28;20367;-76
2022/08/05 02:46:18;;;;;;;1.23;0.60;;;16.20;62.30;;;;;;4987161;28;20019;-75
2022/08/05 02:48:45;;;;;;;1.20;0.50;;;16.20;62.90;;;;;;4987303;28;20041;-75
2022/08/05 02:51:13;;;;;;;2.05;0.50;;;16.20;62.40;;;;;;4987131;28;20014;-75
2022/08/05 02:53:39;;;;;;;0.60;0.30;;;16.10;63.20;;;;;;4986679;28;20027;-76
2022/08/05 02:56:10;;;;;;;0.50;0.43;;;16.10;63.50;;;;;;4986943;28;20023;-75
2022/08/05 02:58:42;;;;;;;0.80;0.30;;;16.10;62.80;;;;;;4986664;28;20023;-76
2022/08/05 03:01:22;;;;;;;3.45;1.58;;;16.00;62.60;;;;;;4985292;28;20471;-75
2022/08/05 03:03:51;;;;;;;2.42;0.50;;;16.00;62.80;;;;;;4986640;28;20088;-75
2022/08/05 03:06:19;;;;;;;3.70;0.50;;;15.90;62.60;;;;;;4987742;28;20022;-75
2022/08/05 03:08:46;;;;;;;1.55;0.65;;;15.80;63.30;;;;;;4983165;28;20034;-74
2022/08/05 03:11:26;;;;;;;0.50;0.20;;;15.90;62.60;;;;;;4990320;28;20050;-75
2022/08/05 03:13:52;;;;;;;1.45;0.25;;;15.80;63.60;;;;;;4979763;28;20184;-75
2022/08/05 03:16:19;;;;;;;3.03;0.40;;;15.80;63.10;;;;;;4990002;28;20018;-76
2022/08/05 03:18:45;;;;;;;1.40;0.30;;;15.80;62.60;;;;;;4989718;28;20030;-75
2022/08/05 03:21:11;;;;;;;2.88;0.38;;;15.70;63.70;;;;;;4989739;28;20017;-75
2022/08/05 03:23:42;;;;;;;1.48;0.60;;;15.80;62.40;;;;;;4989385;28;20057;-75
2022/08/05 03:26:08;;;;;;;3.20;0.50;;;15.80;63.80;;;;;;4989522;28;20030;-75
2022/08/05 03:28:34;;;;;;;1.10;0.45;;;15.80;63.20;;;;;;4989447;28;20379;-75
2022/08/05 03:31:02;;;;;;;1.73;0.25;;;15.80;64.10;;;;;;4989827;28;20018;-75
2022/08/05 03:33:28;;;;;;;2.38;0.60;;;15.70;63.40;;;;;;4987961;28;20027;-75
2022/08/05 03:35:56;;;;;;;0.25;0.20;;;15.60;64.30;;;;;;4988706;28;20333;-75
2022/08/05 03:38:22;;;;;;;2.42;0.70;;;15.60;64.70;;;;;;4982717;28;20075;-75
2022/08/05 03:40:49;;;;;;;0.32;0.28;;;15.50;64.90;;;;;;4989457;28;20019;-75
2022/08/05 03:43:15;;;;;;;0.88;0.25;;;15.40;65.00;;;;;;4989549;28;20386;-75
2022/08/05 03:45:42;;;;;;;0.50;0.30;;;15.40;65.50;;;;;;4990061;28;20075;-75
2022/08/05 03:48:07;;;;;;;0.85;0.30;;;15.40;65.90;;;;;;4989627;28;20011;-75
2022/08/05 03:50:44;;;;;;;1.23;0.43;;;15.30;66.20;;;;;;4989437;28;20030;-75
2022/08/05 03:53:16;;;;;;;1.38;0.63;;;15.40;65.70;;;;;;4989320;28;20390;-75
2022/08/05 03:55:52;;;;;;;1.00;0.40;;;15.30;66.80;;;;;;4989846;28;20042;-75
2022/08/05 03:58:20;;;;;;;1.23;0.60;;;15.30;66.70;;;;;;4977727;28;20026;-75
2022/08/05 04:00:48;;;;;;;1.67;0.63;;;15.30;67.10;;;;;;4989221;28;20375;-75
2022/08/05 04:03:14;;;;;;;1.40;0.57;;;15.30;67.10;;;;;;4989410;28;20027;-75
2022/08/05 04:05:43;;;;;;;1.85;0.40;;;15.30;67.20;;;;;;4989768;28;20080;-76
2022/08/05 04:08:10;;;;;;;1.85;0.50;;;15.30;67.30;;;;;;4981530;28;20482;-75
2022/08/05 04:10:36;;;;;;;0.35;0.30;;;15.30;67.70;;;;;;4988744;28;20019;-76
2022/08/05 04:13:03;;;;;;;2.08;0.50;;;15.30;67.70;;;;;;5073005;23;20089;-79
2022/08/05 04:15:29;;;;;;;0.93;0.30;;;15.20;68.60;;;;;;5072318;28;20081;-79
2022/08/05 04:17:55;;;;;;;2.30;0.43;;;15.20;68.00;;;;;;5072269;28;20027;-79
2022/08/05 04:20:22;;;;;;;0.63;0.22;;;15.20;69.00;;;;;;5072741;28;20020;-79
2022/08/05 04:22:49;;;;;;;1.48;0.30;;;15.20;67.80;;;;;;5053591;28;20033;-77
2022/08/05 04:25:15;;;;;;;0.32;0.32;;;15.20;68.80;;;;;;5069198;28;20017;-79
2022/08/05 04:27:41;;;;;;;2.33;0.47;;;15.10;69.90;;;;;;5066968;28;20480;-79
2022/08/05 04:30:08;;;;;;;2.53;0.50;;;15.00;69.60;;;;;;5053976;28;20048;-79
2022/08/05 04:32:35;;;;;;;0.95;0.40;;;15.00;70.80;;;;;;5052991;28;20024;-79
2022/08/05 04:35:00;;;;;;;2.05;0.47;;;14.90;71.30;;;;;;5070926;28;20024;-79
2022/08/05 04:37:26;;;;;;;0.98;0.50;;;14.90;72.20;;;;;;5053400;28;20070;-79
2022/08/05 04:39:52;;;;;;;0.93;0.30;;;14.90;73.00;;;;;;5070542;28;20378;-78
2022/08/05 04:42:18;;;;;;;2.47;0.50;;;14.90;72.60;;;;;;5070364;28;20538;-79
2022/08/05 04:44:43;;;;;;;0.45;0.45;;;14.90;74.40;;;;;;5071657;28;20017;-79
2022/08/05 04:47:09;;;;;;;1.23;0.40;;;14.90;73.60;;;;;;5071136;28;20614;-79
2022/08/05 04:49:35;;;;;;;1.10;0.40;;;14.90;76.40;;;;;;5070976;28;20418;-79
2022/08/05 04:52:00;;;;;;;2.15;0.73;;;14.90;74.60;;;;;;5070959;28;20080;-79
2022/08/05 04:54:26;;;;;;;0.52;0.52;;;14.90;73.20;;;;;;5070577;28;20024;-79
2022/08/05 04:56:53;;;;;;;0.60;0.43;;;15.00;74.10;;;;;;5047820;28;20633;-79
2022/08/05 04:59:19;;;;;;;1.13;0.73;;;15.00;74.00;;;;;;5070797;28;20396;-79
2022/08/05 05:01:45;;;;;;;1.90;0.43;;;15.10;74.40;;;;;;5070030;28;20027;-78
2022/08/05 05:04:11;;;;;;;1.40;0.73;;;15.10;75.60;;;;;;5070318;28;20032;-79
2022/08/05 05:06:37;;;;;;;1.10;0.60;;;15.10;75.20;;;;;;5053032;28;20029;-79
2022/08/05 05:09:03;;;;;;;2.72;0.50;;;15.10;74.70;;;;;;5070268;28;20021;-77
2022/08/05 05:11:29;;;;;;;0.73;0.40;;;15.20;75.10;;;;;;5070210;28;21237;-79
2022/08/05 05:13:54;;;;;;;0.73;0.73;;;15.20;73.80;;;;;;5052643;28;20537;-79
2022/08/05 05:16:20;;;;;;;0.70;0.47;;;15.20;75.40;;;;;;5070105;28;20023;-79
2022/08/05 05:18:46;;;;;;;2.85;0.70;;;15.20;74.60;;;;;;5070395;28;20100;-79
2022/08/05 05:21:11;;;;;;;0.50;0.43;;;15.10;73.00;;;;;;5070535;28;20020;-79
2022/08/05 05:23:37;;;;;;;1.38;0.50;;;15.10;76.00;;;;;;5069814;28;20028;-79
2022/08/05 05:26:03;;;;;;;0.68;0.43;;;15.10;74.10;;;;;;5065101;28;20462;-79
2022/08/05 05:28:29;;;;;;;0.73;0.73;;;15.10;74.00;;;;;;5065820;28;20130;-79
2022/08/05 05:30:55;;;;;;;3.20;0.50;;;15.00;73.30;;;;;;5070508;28;20477;-79
2022/08/05 05:33:21;;;;;;;1.65;0.75;;;15.10;75.10;;;;;;5069875;28;20037;-77
2022/08/05 05:35:47;;;;;;;0.80;0.40;;;15.00;74.90;;;;;;5070295;28;20020;-79
2022/08/05 05:38:14;;;;;;;0.55;0.43;;;15.00;74.30;;;;;;5038485;28;20479;-79
2022/08/05 05:40:40;;;;;;;1.48;0.60;;;15.00;74.30;;;;;;5070242;28;20031;-79
2022/08/05 05:43:06;;;;;;;2.22;0.70;;;15.00;74.60;;;;;;5069479;28;20056;-78
2022/08/05 05:45:32;;;;;;;2.85;0.38;;;15.10;75.50;;;;;;5070144;28;20063;-79
2022/08/05 05:47:58;;;;;;;1.27;0.30;;;15.20;73.80;;;;;;5069597;28;20016;-79
2022/08/05 05:50:24;;;;;;;1.40;0.75;;;15.20;71.80;;;;;;5051615;28;20552;-78
2022/08/05 05:52:49;;;;;;;1.35;0.57;;;15.20;71.70;;;;;;5069340;28;20029;-79
2022/08/05 05:55:17;;;;;;;1.38;0.50;;;15.20;71.90;;;;;;5070054;28;20048;-79
2022/08/05 05:57:46;;;;;;;1.60;0.60;;;15.20;72.20;;;;;;5067969;28;20017;-79
2022/08/05 06:00:16;;;;;;;1.40;0.60;;;15.30;70.90;;;;;;5070293;28;20038;-79
2022/08/05 06:02:42;;;;;;;2.95;0.60;;;15.40;71.00;;;;;;5051853;28;20470;-79
2022/08/05 06:05:10;;;;;;;1.42;0.55;;;15.50;70.10;;;;;;5069640;28;20112;-78
2022/08/05 06:07:36;;;;;;;2.33;0.70;;;15.60;72.60;;;;;;5062677;28;20053;-79
2022/08/05 06:10:02;;;;;;;4.32;1.05;;;15.60;69.70;;;;;;5056407;28;20051;-78
2022/08/05 06:12:28;;;;;;;0.60;0.30;;;15.70;68.00;;;;;;5070245;28;20086;-79
2022/08/05 06:14:54;;;;;;;0.98;0.50;;;15.80;69.10;;;;;;5069728;28;20477;-79
2022/08/05 06:17:19;;;;;;;0.52;0.52;;;16.00;67.80;;;;;;5069826;28;20016;-79
2022/08/05 06:19:45;;;;;;;2.33;0.63;;;16.20;66.60;;;;;;5069651;28;20085;-79
2022/08/05 06:22:11;;;;;;;1.92;0.40;;;16.30;65.40;;;;;;5069519;28;20008;-79
2022/08/05 06:24:41;;;;;;;2.85;0.40;;;16.40;65.60;;;;;;5069844;28;20074;-79
2022/08/05 06:27:06;;;;;;;1.88;0.40;;;16.50;64.60;;;;;;5069356;28;20421;-79
2022/08/05 06:29:32;;;;;;;0.22;0.22;;;16.40;66.10;;;;;;5069580;28;20107;-79
2022/08/05 06:31:58;;;;;;;3.20;0.50;;;16.20;65.30;;;;;;5051954;28;20389;-79
2022/08/05 06:34:24;;;;;;;1.10;0.40;;;16.10;64.80;;;;;;5069532;28;20504;-79
2022/08/05 06:36:49;;;;;;;0.73;0.40;;;16.00;67.20;;;;;;5066912;28;20107;-79
2022/08/05 06:39:15;;;;;;;1.13;0.40;;;15.90;67.50;;;;;;5069968;28;20389;-79
2022/08/05 06:41:41;;;;;;;0.73;0.40;;;15.90;66.50;;;;;;5072415;28;20100;-79
2022/08/05 06:44:06;;;;;;;0.70;0.50;;;15.90;66.30;;;;;;5069347;28;20433;-79
2022/08/05 06:46:32;;;;;;;3.15;0.90;;;16.00;66.60;;;;;;5059696;28;20482;-78
2022/08/05 06:48:58;;;;;;;2.45;0.93;;;15.90;66.90;;;;;;5055008;28;20021;-79
2022/08/05 06:51:24;;;;;;;2.30;1.05;;;15.90;66.80;;;;;;5052309;28;20021;-77
2022/08/05 06:53:49;;;;;;;1.40;0.35;;;15.90;67.40;;;;;;5073098;28;20087;-79
2022/08/05 06:56:15;;;;;;;1.15;0.50;;;15.90;64.30;;;;;;5071188;28;20062;-79
2022/08/05 06:58:41;;;;;;;1.17;0.40;;;15.90;64.40;;;;;;5036446;28;20025;-79
2022/08/05 07:01:07;;;;;;;5.10;0.55;;;15.90;66.40;;;;;;5064941;28;20031;-79
2022/08/05 07:03:33;;;;;;;2.47;0.30;;;15.90;65.60;;;;;;5065287;28;20017;-81
2022/08/05 07:06:01;;;;;;;0.30;0.30;;;15.90;64.50;;;;;;5071039;28;20021;-79
2022/08/05 07:08:27;;;;;;;1.85;0.52;;;16.00;64.20;;;;;;5048556;28;20028;-79
2022/08/05 07:10:53;;;;;;;2.38;0.35;;;16.10;63.20;;;;;;5073315;28;20021;-79
2022/08/05 07:18:48;;;;;;;3.75;0.52;;;16.10;63.60;;;;;;5069456;28;20443;-79
2022/08/05 07:21:14;;;;;;;0.68;0.28;;;16.20;62.30;;;;;;5066189;28;20465;-78
2022/08/05 07:23:40;;;;;;;3.00;0.30;;;16.30;62.10;;;;;;5072156;28;20186;-78
2022/08/05 07:26:05;;;;;;;0.68;0.30;;;16.40;60.90;;;;;;5072080;28;20020;-78
2022/08/05 07:28:31;;;;;;;1.20;0.30;;;16.50;59.70;;;;;;5054382;28;20074;-78
2022/08/05 07:30:57;;;;;;;1.27;0.30;;;16.50;61.70;;;;;;5073185;28;20021;-79
2022/08/05 07:33:22;;;;;;;2.10;0.30;;;16.50;61.00;;;;;;5072465;28;20120;-79
2022/08/05 07:35:48;;;;;;;3.00;0.35;;;16.60;61.20;;;;;;5072612;28;20024;-78
2022/08/05 07:38:15;;;;;;;1.27;0.35;;;16.60;59.60;;;;;;5067301;28;20025;-79
2022/08/05 07:40:41;;;;;;;1.05;0.30;;;16.60;59.70;;;;;;5071999;28;20073;-78
2022/08/05 07:43:06;;;;;;;4.20;0.45;;;16.70;60.20;;;;;;5030244;22;20129;-74
2022/08/05 07:45:32;;;;;;;4.53;0.65;;;16.70;59.40;;;;;;4991058;28;20022;-74
2022/08/05 07:47:58;;;;;;;0.73;0.35;;;16.70;59.70;;;;;;4990919;28;20097;-74
2022/08/05 07:50:24;;;;;;;1.55;0.20;;;16.80;60.30;;;;;;4990561;28;20489;-75
2022/08/05 07:52:50;;;;;;;1.80;0.60;;;16.80;60.20;;;;;;4989119;28;20127;-74
2022/08/05 07:55:15;;;;;;;2.45;0.57;;;16.80;59.70;;;;;;4989499;28;20497;-74
2022/08/05 07:57:41;;;;;;;1.98;0.30;;;16.80;61.30;;;;;;4988725;28;20049;-75
2022/08/05 08:00:07;;;;;;;1.65;0.60;;;16.80;61.30;;;;;;4989930;28;20518;-74
2022/08/05 08:02:33;;;;;;;1.52;0.75;;;16.90;59.40;;;;;;4989590;28;20693;-74
2022/08/05 08:05:00;;;;;;;1.45;0.22;;;17.00;59.90;;;;;;4989081;28;20497;-74
2022/08/05 08:07:26;;;;;;;0.52;0.30;;;17.10;61.00;;;;;;4983284;28;20557;-74
2022/08/05 08:09:52;;;;;;;4.20;0.38;;;17.10;59.50;;;;;;4987169;28;20025;-74
2022/08/05 08:12:18;;;;;;;1.92;0.30;;;17.30;58.60;;;;;;4988346;28;20046;-74
2022/08/05 08:14:44;;;;;;;3.55;0.40;;;17.40;56.60;;;;;;4988982;28;20109;-75
2022/08/05 08:17:10;;;;;;;0.63;0.30;;;17.50;55.80;;;;;;4989084;28;20026;-74
2022/08/05 08:19:40;;;;;;;0.30;0.30;;;17.50;54.70;;;;;;4988431;28;20026;-75
2022/08/05 08:22:07;;;;;;;2.92;0.50;;;17.60;55.00;;;;;;4989432;28;20029;-75
2022/08/05 08:24:34;;;;;;;1.17;0.30;;;17.50;55.00;;;;;;4988991;28;20375;-74
2022/08/05 08:26:59;;;;;;;0.73;0.43;;;17.60;55.60;;;;;;4989311;28;20667;-74
2022/08/05 08:29:25;;;;;;;0.43;0.25;;;17.70;55.80;;;;;;4989353;28;20113;-74
2022/08/05 08:31:51;;;;;;;1.88;0.30;;;17.80;55.80;;;;;;4975426;28;20494;-74
2022/08/05 08:34:21;;;;;;;4.32;0.45;;;17.80;53.90;;;;;;4988855;28;20033;-75
2022/08/05 08:36:47;;;;;;;0.60;0.30;;;17.90;53.90;;;;;;4988919;28;20027;-74
2022/08/05 08:39:14;;;;;;;1.15;0.38;;;18.00;52.60;;;;;;4984489;28;20037;-75
2022/08/05 08:41:41;;;;;;;3.92;0.30;;;18.00;52.70;;;;;;5014279;23;20041;-78
2022/08/05 08:44:07;;;;;;;2.67;0.30;;;18.10;52.10;;;;;;5057981;28;20119;-78
2022/08/05 08:46:33;;;;;;;0.75;0.20;;;18.20;52.00;;;;;;5072108;28;20495;-79
2022/08/05 08:49:02;;;;;;;3.00;0.50;;;18.30;51.20;;;;;;5072128;28;20028;-78
2022/08/05 08:51:31;;;;;;;2.67;0.30;;;18.40;51.50;;;;;;5071705;28;20683;-78
2022/08/05 08:53:57;;;;;;;5.18;0.43;;;18.60;51.50;;;;;;5070943;28;20086;-78
2022/08/05 08:56:23;;;;;;;0.85;0.20;;;19.10;50.80;;;;;;5070587;28;20020;-78
2022/08/05 08:58:50;;;;;;;0.20;0.20;;;20.10;47.40;;;;;;5064284;28;20486;-78
2022/08/05 09:01:17;;;;;;;0.35;0.10;;;21.00;42.10;;;;;;5070560;28;20020;-76
2022/08/05 09:03:46;;;;;;;1.65;0.20;;;21.70;42.20;;;;;;5070352;28;20028;-76
2022/08/05 09:06:12;;;;;;;1.42;0.13;;;22.40;40.30;;;;;;5070595;28;20065;-76
2022/08/05 09:08:38;;;;;;;1.60;0.20;;;22.40;39.40;;;;;;5062541;28;20107;-76
2022/08/05 09:11:04;;;;;;;2.15;0.32;;;22.90;37.90;;;;;;5070104;28;20138;-76
2022/08/05 09:13:31;;;;;;;3.92;0.43;;;23.30;36.60;;;;;;5070113;28;20029;-77
2022/08/05 09:15:57;;;;;;;1.00;0.22;;;23.90;35.40;;;;;;5070215;28;20028;-77
2022/08/05 09:18:23;;;;;;;1.35;0.25;;;24.50;34.00;;;;;;5070942;28;20020;-76
2022/08/05 09:20:50;;;;;;;1.60;0.20;;;25.10;34.00;;;;;;5070355;28;20012;-76
2022/08/05 09:23:19;;;;;;;2.10;0.20;;;25.60;31.70;;;;;;5070249;28;20511;-76
2022/08/05 09:25:49;;;;;;;4.20;0.30;;;25.50;30.70;;;;;;5070557;28;20106;-77
2022/08/05 09:28:23;;;;;;;1.02;0.20;;;25.50;32.60;;;;;;5057284;28;20015;-76
2022/08/05 09:31:03;;;;;;;2.55;0.30;;;25.10;32.10;;;;;;5052262;28;20027;-77
2022/08/05 09:33:29;;;;;;;1.08;0.30;;;24.50;32.00;;;;;;5069941;28;20028;-76
2022/08/05 09:36:00;;;;;;;2.55;0.50;;;24.10;33.40;;;;;;5070373;28;20488;-76
2022/08/05 09:38:26;;;;;;;2.67;0.20;;;24.40;34.00;;;;;;5067907;28;20020;-76
2022/08/05 09:40:53;;;;;;;3.92;0.20;;;24.90;32.70;;;;;;5069815;28;20012;-76
2022/08/05 09:43:35;;;;;;;1.80;0.32;;;25.90;31.40;;;;;;5071036;28;20055;-76
2022/08/05 09:46:05;;;;;;;0.50;0.13;;;26.90;28.80;;;;;;5070107;28;20027;-76
2022/08/05 09:48:34;;;;;;;3.47;0.30;;;27.40;29.90;;;;;;5070382;28;20111;-77
2022/08/05 09:51:01;;;;;;;0.40;0.10;;;28.50;28.80;;;;;;5057113;28;20020;-77
2022/08/05 09:53:29;;;;;;;0.50;0.10;;;29.20;26.60;;;;;;5052000;28;20426;-77
2022/08/05 09:55:59;;;;;;;3.38;0.32;;;29.10;27.60;;;;;;5069805;28;20017;-77
2022/08/05 09:58:26;;;;;;;1.30;0.30;;;30.40;27.40;;;;;;5070642;28;20548;-77
2022/08/05 10:01:05;;;;;;;0.73;0.28;;;31.30;25.60;;;;;;5069930;28;20052;-77
2022/08/05 10:03:32;;;;;;;2.92;0.28;;;31.70;25.00;;;;;;5069872;28;20071;-77
2022/08/05 10:06:05;;;;;;;0.60;0.20;;;31.40;24.70;;;;;;5070208;28;20066;-77
2022/08/05 10:08:31;;;;;;;0.68;0.17;;;31.70;24.60;;;;;;5064479;28;20111;-77
2022/08/05 10:10:57;;;;;;;2.22;0.43;;;31.60;25.30;;;;;;5056336;28;20075;-76
2022/08/05 10:13:32;;;;;;;0.55;0.20;;;32.20;24.40;;;;;;5069894;28;20039;-77
2022/08/05 10:15:59;;;;;;;0.68;0.10;;;32.60;23.60;;;;;;5072807;28;20027;-77
2022/08/05 10:18:26;;;;;;;1.05;0.20;;;32.90;23.40;;;;;;5074446;28;20449;-77
2022/08/05 10:20:55;;;;;;;1.33;0.35;;;33.20;23.20;;;;;;5074030;28;20029;-77
2022/08/05 10:23:26;;;;;;;1.45;0.20;;;33.40;22.90;;;;;;5073464;28;20037;-77
2022/08/05 10:25:54;;;;;;;0.90;0.13;;;33.40;22.60;;;;;;5073841;28;20096;-77
2022/08/05 10:28:20;;;;;;;0.73;0.10;;;33.80;22.30;;;;;;5074214;28;20016;-77
2022/08/05 10:30:46;;;;;;;1.85;0.20;;;34.00;22.10;;;;;;5073250;28;20346;-77
2022/08/05 10:33:12;;;;;;;0.65;0.10;;;33.90;21.80;;;;;;5073400;28;20029;-77
2022/08/05 10:35:38;;;;;;;0.90;0.10;;;34.10;21.90;;;;;;5056165;28;20028;-77
2022/08/05 10:38:05;;;;;;;1.15;0.17;;;34.70;20.00;;;;;;5069101;28;20027;-76
2022/08/05 10:40:53;;;;;;;2.60;0.30;;;34.80;21.00;;;;;;5073483;28;20013;-77
2022/08/05 10:43:32;;;;;;;1.73;0.20;;;35.10;21.90;;;;;;5073747;28;20047;-77
2022/08/05 10:46:04;;;;;;;0.70;0.20;;;34.80;21.60;;;;;;5073617;28;20024;-77
2022/08/05 10:48:37;;;;;;;1.58;0.40;;;35.00;20.70;;;;;;5073622;28;20016;-77
2022/08/05 10:51:10;;;;;;;1.33;0.30;;;33.70;20.80;;;;;;5061298;28;20044;-77
2022/08/05 10:53:54;;;;;;;0.75;0.05;;;34.00;21.00;;;;;;5073002;28;20037;-77
2022/08/05 10:56:26;;;;;;;2.17;0.30;;;33.50;21.50;;;;;;5073394;28;20019;-77
2022/08/05 10:58:52;;;;;;;2.53;0.30;;;33.40;22.20;;;;;;5073300;28;20028;-77
2022/08/05 11:01:30;;;;;;;2.92;0.25;;;33.90;22.30;;;;;;5073128;28;20091;-77
2022/08/05 11:04:00;;;;;;;0.68;0.10;;;35.00;21.30;;;;;;5073481;28;20024;-77
2022/08/05 11:06:26;;;;;;;2.92;0.45;;;35.60;20.40;;;;;;5066551;28;20516;-77
2022/08/05 11:09:17;;;;;;;0.60;0.17;;;35.40;21.70;;;;;;5061800;28;20025;-77
2022/08/05 11:11:46;;;;;;;0.80;0.10;;;35.80;21.10;;;;;;5071115;28;20064;-77
2022/08/05 11:14:21;;;;;;;2.10;0.30;;;36.70;21.10;;;;;;5072326;28;20119;-76
2022/08/05 11:17:32;;;;;;;0.73;0.20;;;36.80;20.40;;;;;;5069075;28;20540;-77
2022/08/05 11:19:58;;;;;;;1.77;0.20;;;37.20;19.10;;;;;;5072367;28;20017;-76
2022/08/05 11:22:47;;;;;;;0.98;0.10;;;36.60;18.50;;;;;;5072507;28;20036;-76
2022/08/05 11:25:47;;;;;;;0.57;0.13;;;36.70;18.70;;;;;;5072315;28;20511;-77
2022/08/05 11:28:13;;;;;;;0.83;0.23;;;36.80;19.20;;;;;;5058162;28;20461;-77
2022/08/05 11:30:57;;;;;;;0.90;0.10;;;37.10;18.40;;;;;;5072463;28;20035;-77
2022/08/05 11:33:30;;;;;;;0.82;0.20;;;37.00;17.90;;;;;;5071734;28;20036;-77
2022/08/05 11:36:01;;;;;;;1.98;0.10;;;36.90;17.50;;;;;;5071722;28;20415;-77
2022/08/05 11:38:41;;;;;;;0.93;0.20;;;37.00;19.40;;;;;;5068121;28;20503;-78
2022/08/05 11:41:26;;;;;;;0.55;0.10;;;37.30;19.70;;;;;;5061266;28;20027;-78
2022/08/05 11:44:01;;;;;;;1.80;0.15;;;37.80;18.70;;;;;;5043425;28;20043;-77
2022/08/05 11:46:27;;;;;;;1.52;0.40;;;38.30;18.40;;;;;;5058403;28;20051;-78
2022/08/05 11:48:54;;;;;;;0.98;0.20;;;37.20;18.00;;;;;;5071377;28;20033;-78
2022/08/05 11:51:20;;;;;;;0.63;0.10;;;37.20;19.10;;;;;;5071913;28;20043;-77
2022/08/05 11:53:47;;;;;;;1.60;0.20;;;36.40;18.90;;;;;;5071831;28;20477;-77
2022/08/05 11:56:13;;;;;;;3.53;0.20;;;35.60;20.00;;;;;;5071977;28;20024;-78
2022/08/05 11:58:41;;;;;;;1.17;0.30;;;36.20;19.30;;;;;;5071951;28;20086;-78
2022/08/05 12:01:14;;;;;;;1.67;0.20;;;37.20;20.00;;;;;;5072471;28;20103;-77
2022/08/05 12:03:48;;;;;;;0.82;0.38;;;37.30;18.50;;;;;;5058093;28;20028;-77
2022/08/05 12:06:16;;;;;;;0.68;0.10;;;37.90;18.20;;;;;;5053641;28;20071;-77
2022/08/05 12:08:44;;;;;;;1.05;0.13;;;38.00;18.40;;;;;;5066896;28;20078;-78
2022/08/05 12:11:16;;;;;;;2.83;0.28;;;38.00;18.30;;;;;;5071398;28;20099;-77
2022/08/05 12:13:55;;;;;;;2.78;0.30;;;38.40;17.80;;;;;;5053161;28;20628;-78
2022/08/05 12:16:22;;;;;;;1.95;0.30;;;39.30;18.30;;;;;;5071492;28;20068;-77
2022/08/05 12:18:48;;;;;;;0.80;0.15;;;38.90;18.20;;;;;;5071303;28;20060;-77
2022/08/05 12:21:16;;;;;;;0.98;0.20;;;38.60;18.60;;;;;;5053743;28;20051;-77
2022/08/05 12:24:04;;;;;;;1.75;0.10;;;38.90;18.00;;;;;;5058049;28;20025;-78
2022/08/05 12:26:49;;;;;;;0.43;0.10;;;39.10;18.70;;;;;;5059132;28;20013;-78
2022/08/05 12:29:26;;;;;;;0.35;0.10;;;39.20;17.50;;;;;;5059855;28;20544;-78
2022/08/05 12:31:57;;;;;;;1.73;0.20;;;38.90;18.00;;;;;;5057972;28;20037;-77
2022/08/05 12:34:31;;;;;;;0.60;0.17;;;38.80;18.60;;;;;;5070860;28;20368;-79
2022/08/05 12:37:00;;;;;;;1.30;0.10;;;39.70;18.00;;;;;;5066689;28;20482;-78
2022/08/05 12:39:27;;;;;;;1.70;0.20;;;40.50;16.40;;;;;;5060725;28;20025;-79
2022/08/05 12:41:59;;;;;;;3.08;0.30;;;40.70;17.60;;;;;;5083285;22;20033;-74
2022/08/05 12:44:25;;;;;;;1.35;0.32;;;40.80;16.80;;;;;;4986861;28;20042;-74
2022/08/05 12:46:52;;;;;;;1.35;0.17;;;41.40;16.50;;;;;;4988431;28;20084;-74
2022/08/05 12:49:18;;;;;;;1.08;0.20;;;40.80;16.20;;;;;;4988325;28;20022;-74
2022/08/05 12:51:50;;;;;;;1.65;0.32;;;41.20;17.00;;;;;;4987697;28;20471;-73
2022/08/05 12:54:23;;;;;;;0.95;0.13;;;40.50;16.30;;;;;;4970494;28;20508;-74
2022/08/05 12:56:52;;;;;;;1.77;0.20;;;39.60;16.70;;;;;;4961879;28;20027;-74
2022/08/05 12:59:21;;;;;;;1.23;0.20;;;40.20;17.00;;;;;;4968313;28;20019;-74
2022/08/05 13:01:59;;;;;;;3.17;0.35;;;40.00;16.20;;;;;;4968877;28;20483;-74